Terminal Aerodrome Forecast
Issued by NWS

Home | Current Version | Previous Version | Text Only | Print | Product List | Glossary Off
Versions: 1 2 3 4 5 6 7 8 9 10 11 12 13 14 15 16 17 18 19 20 21 22 23 24 25 26 27 28

000
FTUS43 KGRB 280520
TAFCWA
TAF
KCWA 280520Z 2806/2906 13004KT 6SM BR SCT004 BKN150
      TEMPO 2806/2808 1/2SM -SHRA FG OVC004
     FM280800 14004KT 2SM BR SCT002 OVC006
      TEMPO 2808/2812 1/4SM -SHRA FG OVC002
     FM281500 17009KT P6SM VCSH OVC008
     FM281700 18010KT P6SM VCSH BKN015
     FM281900 18011KT P6SM VCSH BKN030
     FM290000 19009KT P6SM SHRA BKN040 BKN070
     FM290300 18005KT P6SM SHRA BKN040 BKN070
      AMD LTD TO CLD VIS AND WIND TIL 281100=

USA.gov is the U.S. government's official web portal to all federal, state and local government web resources and services.